Terminal Aerodrome Forecast
Issued by NWS

Current Version | Previous Version | Graphics & Text | Print | Product List | Glossary On
Versions: 1 2 3 4 5 6 7 8 9 10 11 12 13 14 15 16 17 18 19 20 21 22
000
FTUS41 KPBZ 161700
TAFHLG
TAF
KHLG 161729Z 1618/1718 21008G16KT P6SM -SHRA OVC015
     FM162100 24010G18KT P6SM -SHRA OVC008
     FM171000 26008KT P6SM OVC015
     FM171500 26012G22KT P6SM BKN025=

USA.gov is the U.S. government's official web portal to all federal, state and local government web resources and services.